sensor_id;sensor_type;location;lat;lon;timestamp;P1;durP1;ratioP1;P2;durP2;ratioP2
12880;SDS011;6508;53.786;9.996;2023-03-31T00:00:53;0.00;;;0.00;;
12880;SDS011;6508;53.786;9.996;2023-03-31T00:03:23;0.00;;;0.00;;
12880;SDS011;6508;53.786;9.996;2023-03-31T00:05:55;0.00;;;0.00;;
12880;SDS011;6508;53.786;9.996;2023-03-31T00:08:23;0.43;;;0.22;;
12880;SDS011;6508;53.786;9.996;2023-03-31T00:10:57;0.00;;;0.00;;
12880;SDS011;6508;53.786;9.996;2023-03-31T00:13:25;0.00;;;0.00;;
12880;SDS011;6508;53.786;9.996;2023-03-31T00:15:55;0.00;;;0.00;;
12880;SDS011;6508;53.786;9.996;2023-03-31T00:18:23;0.00;;;0.00;;
12880;SDS011;6508;53.786;9.996;2023-03-31T00:20:52;0.00;;;0.00;;
12880;SDS011;6508;53.786;9.996;2023-03-31T00:23:21;0.00;;;0.00;;
12880;SDS011;6508;53.786;9.996;2023-03-31T00:25:53;0.00;;;0.00;;
12880;SDS011;6508;53.786;9.996;2023-03-31T00:28:21;0.00;;;0.00;;
12880;SDS011;6508;53.786;9.996;2023-03-31T00:30:49;1.10;;;1.10;;
12880;SDS011;6508;53.786;9.996;2023-03-31T00:33:18;0.00;;;0.00;;
12880;SDS011;6508;53.786;9.996;2023-03-31T00:35:49;0.00;;;0.00;;
12880;SDS011;6508;53.786;9.996;2023-03-31T00:38:18;0.00;;;0.00;;
12880;SDS011;6508;53.786;9.996;2023-03-31T00:40:49;0.00;;;0.00;;
12880;SDS011;6508;53.786;9.996;2023-03-31T00:43:27;0.00;;;0.00;;
12880;SDS011;6508;53.786;9.996;2023-03-31T00:46:06;0.00;;;0.00;;
12880;SDS011;6508;53.786;9.996;2023-03-31T00:48:41;0.00;;;0.00;;
12880;SDS011;6508;53.786;9.996;2023-03-31T00:51:13;0.00;;;0.00;;
12880;SDS011;6508;53.786;9.996;2023-03-31T00:53:41;0.00;;;0.00;;
12880;SDS011;6508;53.786;9.996;2023-03-31T00:56:12;0.00;;;0.00;;
12880;SDS011;6508;53.786;9.996;2023-03-31T00:58:41;0.00;;;0.00;;
12880;SDS011;6508;53.786;9.996;2023-03-31T01:01:12;0.00;;;0.00;;
12880;SDS011;6508;53.786;9.996;2023-03-31T01:03:42;0.00;;;0.00;;
12880;SDS011;6508;53.786;9.996;2023-03-31T01:06:11;0.00;;;0.00;;
12880;SDS011;6508;53.786;9.996;2023-03-31T01:08:45;0.00;;;0.00;;
12880;SDS011;6508;53.786;9.996;2023-03-31T01:11:16;0.00;;;0.00;;
12880;SDS011;6508;53.786;9.996;2023-03-31T01:13:46;0.00;;;0.00;;
12880;SDS011;6508;53.786;9.996;2023-03-31T01:16:17;0.05;;;0.05;;
12880;SDS011;6508;53.786;9.996;2023-03-31T01:18:45;0.00;;;0.00;;
12880;SDS011;6508;53.786;9.996;2023-03-31T01:21:20;0.00;;;0.00;;
12880;SDS011;6508;53.786;9.996;2023-03-31T01:24:15;0.00;;;0.00;;
12880;SDS011;6508;53.786;9.996;2023-03-31T01:27:12;0.00;;;0.00;;
12880;SDS011;6508;53.786;9.996;2023-03-31T01:29:56;0.00;;;0.00;;
12880;SDS011;6508;53.786;9.996;2023-03-31T01:32:41;0.20;;;0.20;;
12880;SDS011;6508;53.786;9.996;2023-03-31T01:38:26;0.00;;;0.00;;
12880;SDS011;6508;53.786;9.996;2023-03-31T01:41:10;0.00;;;0.00;;
12880;SDS011;6508;53.786;9.996;2023-03-31T01:43:45;0.00;;;0.00;;
12880;SDS011;6508;53.786;9.996;2023-03-31T01:46:16;0.00;;;0.00;;
12880;SDS011;6508;53.786;9.996;2023-03-31T01:48:48;0.00;;;0.00;;
12880;SDS011;6508;53.786;9.996;2023-03-31T01:51:21;0.00;;;0.00;;
12880;SDS011;6508;53.786;9.996;2023-03-31T01:53:58;0.00;;;0.00;;
12880;SDS011;6508;53.786;9.996;2023-03-31T01:56:31;0.00;;;0.00;;
12880;SDS011;6508;53.786;9.996;2023-03-31T01:59:02;0.00;;;0.00;;
12880;SDS011;6508;53.786;9.996;2023-03-31T02:01:35;0.00;;;0.00;;
12880;SDS011;6508;53.786;9.996;2023-03-31T02:04:06;0.00;;;0.00;;
12880;SDS011;6508;53.786;9.996;2023-03-31T02:06:38;0.00;;;0.00;;
12880;SDS011;6508;53.786;9.996;2023-03-31T02:09:08;0.00;;;0.00;;
12880;SDS011;6508;53.786;9.996;2023-03-31T02:11:39;0.00;;;0.00;;
12880;SDS011;6508;53.786;9.996;2023-03-31T02:14:09;0.00;;;0.00;;
12880;SDS011;6508;53.786;9.996;2023-03-31T02:16:38;0.08;;;0.08;;
12880;SDS011;6508;53.786;9.996;2023-03-31T02:19:12;0.00;;;0.00;;
12880;SDS011;6508;53.786;9.996;2023-03-31T02:21:44;0.63;;;0.63;;
12880;SDS011;6508;53.786;9.996;2023-03-31T02:24:15;0.00;;;0.00;;
12880;SDS011;6508;53.786;9.996;2023-03-31T02:26:47;0.00;;;0.00;;
12880;SDS011;6508;53.786;9.996;2023-03-31T02:29:18;0.00;;;0.00;;
12880;SDS011;6508;53.786;9.996;2023-03-31T02:31:48;0.00;;;0.00;;
12880;SDS011;6508;53.786;9.996;2023-03-31T02:34:20;0.00;;;0.00;;
12880;SDS011;6508;53.786;9.996;2023-03-31T02:36:47;0.00;;;0.00;;
12880;SDS011;6508;53.786;9.996;2023-03-31T02:39:16;0.00;;;0.00;;
12880;SDS011;6508;53.786;9.996;2023-03-31T02:41:47;0.00;;;0.00;;
12880;SDS011;6508;53.786;9.996;2023-03-31T02:44:17;0.00;;;0.00;;
12880;SDS011;6508;53.786;9.996;2023-03-31T02:46:46;0.00;;;0.00;;
12880;SDS011;6508;53.786;9.996;2023-03-31T02:49:15;1.17;;;1.17;;
12880;SDS011;6508;53.786;9.996;2023-03-31T02:51:57;0.00;;;0.00;;
12880;SDS011;6508;53.786;9.996;2023-03-31T03:01:07;0.00;;;0.00;;
12880;SDS011;6508;53.786;9.996;2023-03-31T03:03:43;0.00;;;0.00;;
12880;SDS011;6508;53.786;9.996;2023-03-31T03:06:18;0.00;;;0.00;;
12880;SDS011;6508;53.786;9.996;2023-03-31T03:09:06;0.00;;;0.00;;
12880;SDS011;6508;53.786;9.996;2023-03-31T03:11:40;0.15;;;0.15;;
12880;SDS011;6508;53.786;9.996;2023-03-31T03:14:16;0.00;;;0.00;;
12880;SDS011;6508;53.786;9.996;2023-03-31T03:16:51;0.00;;;0.00;;
12880;SDS011;6508;53.786;9.996;2023-03-31T03:19:22;0.00;;;0.00;;
12880;SDS011;6508;53.786;9.996;2023-03-31T03:21:50;0.00;;;0.00;;
12880;SDS011;6508;53.786;9.996;2023-03-31T03:24:18;0.00;;;0.00;;
12880;SDS011;6508;53.786;9.996;2023-03-31T03:26:48;0.00;;;0.00;;
12880;SDS011;6508;53.786;9.996;2023-03-31T03:29:17;0.00;;;0.00;;
12880;SDS011;6508;53.786;9.996;2023-03-31T03:31:45;0.00;;;0.00;;
12880;SDS011;6508;53.786;9.996;2023-03-31T03:34:14;0.00;;;0.00;;
12880;SDS011;6508;53.786;9.996;2023-03-31T03:36:44;0.47;;;0.47;;
12880;SDS011;6508;53.786;9.996;2023-03-31T03:39:12;0.00;;;0.00;;
12880;SDS011;6508;53.786;9.996;2023-03-31T03:41:40;0.00;;;0.00;;
12880;SDS011;6508;53.786;9.996;2023-03-31T03:44:09;0.00;;;0.00;;
12880;SDS011;6508;53.786;9.996;2023-03-31T03:46:37;0.00;;;0.00;;
12880;SDS011;6508;53.786;9.996;2023-03-31T03:49:04;0.00;;;0.00;;
12880;SDS011;6508;53.786;9.996;2023-03-31T03:51:33;0.00;;;0.00;;
12880;SDS011;6508;53.786;9.996;2023-03-31T03:54:01;0.00;;;0.00;;
12880;SDS011;6508;53.786;9.996;2023-03-31T03:56:29;0.10;;;0.10;;
12880;SDS011;6508;53.786;9.996;2023-03-31T03:58:57;0.00;;;0.00;;
12880;SDS011;6508;53.786;9.996;2023-03-31T04:01:25;0.00;;;0.00;;
12880;SDS011;6508;53.786;9.996;2023-03-31T04:03:53;0.00;;;0.00;;
12880;SDS011;6508;53.786;9.996;2023-03-31T04:06:22;0.00;;;0.00;;
12880;SDS011;6508;53.786;9.996;2023-03-31T04:08:51;0.00;;;0.00;;
12880;SDS011;6508;53.786;9.996;2023-03-31T04:11:18;0.00;;;0.00;;
12880;SDS011;6508;53.786;9.996;2023-03-31T04:13:46;0.25;;;0.25;;
12880;SDS011;6508;53.786;9.996;2023-03-31T04:16:14;0.00;;;0.00;;
12880;SDS011;6508;53.786;9.996;2023-03-31T04:18:42;0.00;;;0.00;;
12880;SDS011;6508;53.786;9.996;2023-03-31T04:21:11;0.00;;;0.00;;
12880;SDS011;6508;53.786;9.996;2023-03-31T04:23:41;0.00;;;0.00;;
12880;SDS011;6508;53.786;9.996;2023-03-31T04:26:15;0.00;;;0.00;;
12880;SDS011;6508;53.786;9.996;2023-03-31T04:28:43;0.00;;;0.00;;
12880;SDS011;6508;53.786;9.996;2023-03-31T04:31:15;0.00;;;0.00;;
12880;SDS011;6508;53.786;9.996;2023-03-31T04:33:50;0.00;;;0.00;;
12880;SDS011;6508;53.786;9.996;2023-03-31T04:36:18;0.00;;;0.00;;
12880;SDS011;6508;53.786;9.996;2023-03-31T04:38:47;0.00;;;0.00;;
12880;SDS011;6508;53.786;9.996;2023-03-31T04:41:21;0.00;;;0.00;;
12880;SDS011;6508;53.786;9.996;2023-03-31T04:43:50;0.00;;;0.00;;
12880;SDS011;6508;53.786;9.996;2023-03-31T04:46:18;0.00;;;0.00;;
12880;SDS011;6508;53.786;9.996;2023-03-31T04:48:46;0.08;;;0.08;;
12880;SDS011;6508;53.786;9.996;2023-03-31T04:51:13;0.00;;;0.00;;
12880;SDS011;6508;53.786;9.996;2023-03-31T04:53:41;0.00;;;0.00;;
12880;SDS011;6508;53.786;9.996;2023-03-31T04:56:10;0.00;;;0.00;;
12880;SDS011;6508;53.786;9.996;2023-03-31T04:58:39;0.08;;;0.08;;
12880;SDS011;6508;53.786;9.996;2023-03-31T05:01:06;0.00;;;0.00;;
12880;SDS011;6508;53.786;9.996;2023-03-31T05:03:34;0.00;;;0.00;;
12880;SDS011;6508;53.786;9.996;2023-03-31T05:06:02;0.00;;;0.00;;
12880;SDS011;6508;53.786;9.996;2023-03-31T05:08:31;0.00;;;0.00;;
12880;SDS011;6508;53.786;9.996;2023-03-31T05:10:59;0.00;;;0.00;;
12880;SDS011;6508;53.786;9.996;2023-03-31T05:13:28;0.00;;;0.00;;
12880;SDS011;6508;53.786;9.996;2023-03-31T05:15:58;0.00;;;0.00;;
12880;SDS011;6508;53.786;9.996;2023-03-31T05:18:32;0.00;;;0.00;;
12880;SDS011;6508;53.786;9.996;2023-03-31T05:21:10;0.00;;;0.00;;
12880;SDS011;6508;53.786;9.996;2023-03-31T05:23:39;0.10;;;0.10;;
12880;SDS011;6508;53.786;9.996;2023-03-31T05:26:06;0.00;;;0.00;;
12880;SDS011;6508;53.786;9.996;2023-03-31T05:28:34;0.00;;;0.00;;
12880;SDS011;6508;53.786;9.996;2023-03-31T05:31:04;0.00;;;0.00;;
12880;SDS011;6508;53.786;9.996;2023-03-31T05:33:32;0.00;;;0.00;;
12880;SDS011;6508;53.786;9.996;2023-03-31T05:36:06;0.00;;;0.00;;
12880;SDS011;6508;53.786;9.996;2023-03-31T05:38:36;0.00;;;0.00;;
12880;SDS011;6508;53.786;9.996;2023-03-31T05:41:04;0.10;;;0.10;;
12880;SDS011;6508;53.786;9.996;2023-03-31T05:43:32;0.30;;;0.30;;
12880;SDS011;6508;53.786;9.996;2023-03-31T05:46:00;0.00;;;0.00;;
12880;SDS011;6508;53.786;9.996;2023-03-31T05:48:29;0.30;;;0.30;;
12880;SDS011;6508;53.786;9.996;2023-03-31T05:50:58;0.00;;;0.00;;
12880;SDS011;6508;53.786;9.996;2023-03-31T05:53:26;0.43;;;0.43;;
12880;SDS011;6508;53.786;9.996;2023-03-31T05:55:55;0.00;;;0.00;;
12880;SDS011;6508;53.786;9.996;2023-03-31T05:58:24;2.78;;;2.63;;
12880;SDS011;6508;53.786;9.996;2023-03-31T06:00:59;0.30;;;0.30;;
12880;SDS011;6508;53.786;9.996;2023-03-31T06:03:27;0.00;;;0.00;;
12880;SDS011;6508;53.786;9.996;2023-03-31T06:05:56;0.00;;;0.00;;
12880;SDS011;6508;53.786;9.996;2023-03-31T06:08:25;0.00;;;0.00;;
12880;SDS011;6508;53.786;9.996;2023-03-31T06:10:53;0.00;;;0.00;;
12880;SDS011;6508;53.786;9.996;2023-03-31T06:13:21;0.00;;;0.00;;
12880;SDS011;6508;53.786;9.996;2023-03-31T06:15:52;0.00;;;0.00;;
12880;SDS011;6508;53.786;9.996;2023-03-31T06:18:21;0.00;;;0.00;;
12880;SDS011;6508;53.786;9.996;2023-03-31T06:20:49;0.00;;;0.00;;
12880;SDS011;6508;53.786;9.996;2023-03-31T06:23:18;0.05;;;0.05;;
12880;SDS011;6508;53.786;9.996;2023-03-31T06:25:47;0.00;;;0.00;;
12880;SDS011;6508;53.786;9.996;2023-03-31T06:28:17;0.00;;;0.00;;
12880;SDS011;6508;53.786;9.996;2023-03-31T06:30:46;0.10;;;0.10;;
12880;SDS011;6508;53.786;9.996;2023-03-31T06:33:14;0.15;;;0.15;;
12880;SDS011;6508;53.786;9.996;2023-03-31T06:35:42;3.00;;;1.70;;
12880;SDS011;6508;53.786;9.996;2023-03-31T06:38:10;0.00;;;0.00;;
12880;SDS011;6508;53.786;9.996;2023-03-31T06:40:39;0.00;;;0.00;;
12880;SDS011;6508;53.786;9.996;2023-03-31T06:43:09;0.05;;;0.05;;
12880;SDS011;6508;53.786;9.996;2023-03-31T06:45:36;0.20;;;0.20;;
12880;SDS011;6508;53.786;9.996;2023-03-31T06:48:05;0.10;;;0.10;;
12880;SDS011;6508;53.786;9.996;2023-03-31T06:50:33;0.00;;;0.00;;
12880;SDS011;6508;53.786;9.996;2023-03-31T06:53:01;0.00;;;0.00;;
12880;SDS011;6508;53.786;9.996;2023-03-31T06:55:29;1.48;;;1.45;;
12880;SDS011;6508;53.786;9.996;2023-03-31T06:58:00;0.10;;;0.10;;
12880;SDS011;6508;53.786;9.996;2023-03-31T07:00:30;0.10;;;0.10;;
12880;SDS011;6508;53.786;9.996;2023-03-31T07:02:59;0.03;;;0.03;;
12880;SDS011;6508;53.786;9.996;2023-03-31T07:05:29;0.10;;;0.10;;
12880;SDS011;6508;53.786;9.996;2023-03-31T07:07:58;0.05;;;0.05;;
12880;SDS011;6508;53.786;9.996;2023-03-31T07:10:27;0.03;;;0.03;;
12880;SDS011;6508;53.786;9.996;2023-03-31T07:12:56;0.20;;;0.20;;
12880;SDS011;6508;53.786;9.996;2023-03-31T07:15:26;0.10;;;0.10;;
12880;SDS011;6508;53.786;9.996;2023-03-31T07:17:54;0.10;;;0.10;;
12880;SDS011;6508;53.786;9.996;2023-03-31T07:20:28;0.05;;;0.05;;
12880;SDS011;6508;53.786;9.996;2023-03-31T07:22:56;0.20;;;0.20;;
12880;SDS011;6508;53.786;9.996;2023-03-31T07:25:24;0.10;;;0.10;;
12880;SDS011;6508;53.786;9.996;2023-03-31T07:27:51;0.10;;;0.10;;
12880;SDS011;6508;53.786;9.996;2023-03-31T07:30:19;17.63;;;6.95;;
12880;SDS011;6508;53.786;9.996;2023-03-31T07:32:50;14.88;;;7.20;;
12880;SDS011;6508;53.786;9.996;2023-03-31T07:35:19;16.85;;;6.90;;
12880;SDS011;6508;53.786;9.996;2023-03-31T07:37:48;14.55;;;7.38;;
12880;SDS011;6508;53.786;9.996;2023-03-31T07:40:18;13.15;;;6.85;;
12880;SDS011;6508;53.786;9.996;2023-03-31T07:42:47;13.85;;;7.25;;
12880;SDS011;6508;53.786;9.996;2023-03-31T07:45:17;13.40;;;6.57;;
12880;SDS011;6508;53.786;9.996;2023-03-31T07:47:46;13.80;;;6.65;;
12880;SDS011;6508;53.786;9.996;2023-03-31T07:50:18;14.60;;;7.47;;
12880;SDS011;6508;53.786;9.996;2023-03-31T07:52:49;11.75;;;6.95;;
12880;SDS011;6508;53.786;9.996;2023-03-31T07:55:17;8.52;;;6.55;;
12880;SDS011;6508;53.786;9.996;2023-03-31T07:57:46;13.88;;;7.47;;
12880;SDS011;6508;53.786;9.996;2023-03-31T08:00:14;13.90;;;7.60;;
12880;SDS011;6508;53.786;9.996;2023-03-31T08:02:42;15.30;;;7.88;;
12880;SDS011;6508;53.786;9.996;2023-03-31T08:05:11;13.88;;;7.47;;
12880;SDS011;6508;53.786;9.996;2023-03-31T08:07:42;12.00;;;7.63;;
12880;SDS011;6508;53.786;9.996;2023-03-31T08:10:13;17.95;;;8.52;;
12880;SDS011;6508;53.786;9.996;2023-03-31T08:12:43;17.92;;;8.48;;
12880;SDS011;6508;53.786;9.996;2023-03-31T08:15:11;14.40;;;8.30;;
12880;SDS011;6508;53.786;9.996;2023-03-31T08:17:39;15.70;;;8.98;;
12880;SDS011;6508;53.786;9.996;2023-03-31T08:20:07;15.45;;;9.13;;
12880;SDS011;6508;53.786;9.996;2023-03-31T08:22:36;13.00;;;8.32;;
12880;SDS011;6508;53.786;9.996;2023-03-31T08:25:06;12.85;;;8.48;;
12880;SDS011;6508;53.786;9.996;2023-03-31T08:27:35;12.95;;;8.90;;
12880;SDS011;6508;53.786;9.996;2023-03-31T08:30:05;15.07;;;9.82;;
12880;SDS011;6508;53.786;9.996;2023-03-31T08:32:34;15.75;;;8.80;;
12880;SDS011;6508;53.786;9.996;2023-03-31T08:35:02;13.48;;;9.00;;
12880;SDS011;6508;53.786;9.996;2023-03-31T08:37:30;11.75;;;8.93;;
12880;SDS011;6508;53.786;9.996;2023-03-31T08:39:58;13.90;;;9.30;;
12880;SDS011;6508;53.786;9.996;2023-03-31T08:42:30;11.15;;;8.10;;
12880;SDS011;6508;53.786;9.996;2023-03-31T08:45:04;12.57;;;8.13;;
12880;SDS011;6508;53.786;9.996;2023-03-31T08:47:33;8.63;;;7.20;;
12880;SDS011;6508;53.786;9.996;2023-03-31T08:50:04;12.95;;;7.55;;
12880;SDS011;6508;53.786;9.996;2023-03-31T08:52:35;10.75;;;7.65;;
12880;SDS011;6508;53.786;9.996;2023-03-31T08:55:05;9.23;;;6.50;;
12880;SDS011;6508;53.786;9.996;2023-03-31T08:57:37;8.05;;;6.75;;
12880;SDS011;6508;53.786;9.996;2023-03-31T09:02:42;7.28;;;6.40;;
12880;SDS011;6508;53.786;9.996;2023-03-31T09:05:28;9.77;;;7.05;;
12880;SDS011;6508;53.786;9.996;2023-03-31T09:08:30;8.32;;;5.43;;
12880;SDS011;6508;53.786;9.996;2023-03-31T09:11:03;8.27;;;5.18;;
12880;SDS011;6508;53.786;9.996;2023-03-31T09:13:40;7.65;;;5.47;;
12880;SDS011;6508;53.786;9.996;2023-03-31T09:16:21;9.80;;;6.22;;
12880;SDS011;6508;53.786;9.996;2023-03-31T09:18:51;6.45;;;5.53;;
12880;SDS011;6508;53.786;9.996;2023-03-31T09:21:22;11.48;;;6.32;;
12880;SDS011;6508;53.786;9.996;2023-03-31T09:23:54;7.72;;;5.68;;
12880;SDS011;6508;53.786;9.996;2023-03-31T09:26:26;8.60;;;6.28;;
12880;SDS011;6508;53.786;9.996;2023-03-31T09:29:00;8.80;;;5.85;;
12880;SDS011;6508;53.786;9.996;2023-03-31T09:31:31;8.85;;;5.95;;
12880;SDS011;6508;53.786;9.996;2023-03-31T09:34:00;10.07;;;5.78;;
12880;SDS011;6508;53.786;9.996;2023-03-31T09:36:39;9.93;;;5.70;;
12880;SDS011;6508;53.786;9.996;2023-03-31T09:39:08;7.65;;;5.75;;
12880;SDS011;6508;53.786;9.996;2023-03-31T09:41:38;5.90;;;5.30;;
12880;SDS011;6508;53.786;9.996;2023-03-31T09:44:13;7.80;;;5.30;;
12880;SDS011;6508;53.786;9.996;2023-03-31T09:46:48;7.00;;;6.40;;
12880;SDS011;6508;53.786;9.996;2023-03-31T09:49:17;8.40;;;5.57;;
12880;SDS011;6508;53.786;9.996;2023-03-31T09:51:47;6.78;;;6.00;;
12880;SDS011;6508;53.786;9.996;2023-03-31T09:54:27;5.88;;;5.38;;
12880;SDS011;6508;53.786;9.996;2023-03-31T09:56:57;7.43;;;5.43;;
12880;SDS011;6508;53.786;9.996;2023-03-31T09:59:31;5.97;;;5.38;;
12880;SDS011;6508;53.786;9.996;2023-03-31T10:02:01;6.90;;;5.45;;
12880;SDS011;6508;53.786;9.996;2023-03-31T10:04:33;6.05;;;5.43;;
12880;SDS011;6508;53.786;9.996;2023-03-31T10:07:03;10.27;;;5.75;;
12880;SDS011;6508;53.786;9.996;2023-03-31T10:09:33;8.00;;;5.97;;
12880;SDS011;6508;53.786;9.996;2023-03-31T10:12:05;7.60;;;6.75;;
12880;SDS011;6508;53.786;9.996;2023-03-31T10:14:39;6.63;;;5.95;;
12880;SDS011;6508;53.786;9.996;2023-03-31T10:17:10;10.30;;;6.50;;
12880;SDS011;6508;53.786;9.996;2023-03-31T10:19:46;8.55;;;6.18;;
12880;SDS011;6508;53.786;9.996;2023-03-31T10:22:15;8.82;;;5.57;;
12880;SDS011;6508;53.786;9.996;2023-03-31T10:24:45;9.85;;;5.85;;
12880;SDS011;6508;53.786;9.996;2023-03-31T10:27:16;6.97;;;6.20;;
12880;SDS011;6508;53.786;9.996;2023-03-31T10:29:51;7.53;;;6.35;;
12880;SDS011;6508;53.786;9.996;2023-03-31T10:32:21;7.18;;;5.65;;
12880;SDS011;6508;53.786;9.996;2023-03-31T10:34:51;5.85;;;5.18;;
12880;SDS011;6508;53.786;9.996;2023-03-31T10:37:21;7.00;;;6.00;;
12880;SDS011;6508;53.786;9.996;2023-03-31T10:39:55;11.68;;;9.45;;
12880;SDS011;6508;53.786;9.996;2023-03-31T10:42:23;6.82;;;6.03;;
12880;SDS011;6508;53.786;9.996;2023-03-31T10:44:56;8.00;;;6.40;;
12880;SDS011;6508;53.786;9.996;2023-03-31T10:48:02;5.63;;;4.78;;
12880;SDS011;6508;53.786;9.996;2023-03-31T10:50:31;6.25;;;5.65;;
12880;SDS011;6508;53.786;9.996;2023-03-31T10:53:00;11.93;;;9.73;;
12880;SDS011;6508;53.786;9.996;2023-03-31T10:55:32;9.00;;;6.82;;
12880;SDS011;6508;53.786;9.996;2023-03-31T10:58:05;6.75;;;5.88;;
12880;SDS011;6508;53.786;9.996;2023-03-31T11:00:45;10.25;;;9.35;;
12880;SDS011;6508;53.786;9.996;2023-03-31T11:03:22;6.72;;;5.55;;
12880;SDS011;6508;53.786;9.996;2023-03-31T11:06:16;6.05;;;5.50;;
12880;SDS011;6508;53.786;9.996;2023-03-31T11:08:51;9.45;;;5.97;;
12880;SDS011;6508;53.786;9.996;2023-03-31T11:11:29;6.68;;;6.07;;
12880;SDS011;6508;53.786;9.996;2023-03-31T11:14:07;8.43;;;7.63;;
12880;SDS011;6508;53.786;9.996;2023-03-31T11:16:41;7.30;;;6.22;;
12880;SDS011;6508;53.786;9.996;2023-03-31T11:19:18;7.43;;;6.72;;
12880;SDS011;6508;53.786;9.996;2023-03-31T11:21:54;8.23;;;7.35;;
12880;SDS011;6508;53.786;9.996;2023-03-31T11:24:28;8.75;;;7.32;;
12880;SDS011;6508;53.786;9.996;2023-03-31T11:27:05;9.23;;;7.70;;
12880;SDS011;6508;53.786;9.996;2023-03-31T11:29:41;7.43;;;6.72;;
12880;SDS011;6508;53.786;9.996;2023-03-31T11:32:21;8.77;;;7.97;;
12880;SDS011;6508;53.786;9.996;2023-03-31T11:35:01;7.95;;;7.15;;
12880;SDS011;6508;53.786;9.996;2023-03-31T11:37:41;7.57;;;6.32;;
12880;SDS011;6508;53.786;9.996;2023-03-31T11:40:20;5.22;;;4.82;;
12880;SDS011;6508;53.786;9.996;2023-03-31T11:42:58;6.32;;;5.32;;
12880;SDS011;6508;53.786;9.996;2023-03-31T11:45:28;8.38;;;5.53;;
12880;SDS011;6508;53.786;9.996;2023-03-31T11:48:00;5.32;;;4.82;;
12880;SDS011;6508;53.786;9.996;2023-03-31T11:50:34;5.55;;;5.07;;
12880;SDS011;6508;53.786;9.996;2023-03-31T11:53:06;9.27;;;5.78;;
12880;SDS011;6508;53.786;9.996;2023-03-31T11:55:39;5.10;;;4.80;;
12880;SDS011;6508;53.786;9.996;2023-03-31T11:58:08;4.80;;;4.40;;
12880;SDS011;6508;53.786;9.996;2023-03-31T12:00:39;5.05;;;4.65;;
12880;SDS011;6508;53.786;9.996;2023-03-31T12:03:11;5.78;;;5.00;;
12880;SDS011;6508;53.786;9.996;2023-03-31T12:05:40;5.43;;;4.90;;
12880;SDS011;6508;53.786;9.996;2023-03-31T12:08:12;6.22;;;5.72;;
12880;SDS011;6508;53.786;9.996;2023-03-31T12:10:43;6.65;;;6.15;;
12880;SDS011;6508;53.786;9.996;2023-03-31T12:13:22;5.35;;;4.95;;
12880;SDS011;6508;53.786;9.996;2023-03-31T12:15:58;5.35;;;4.85;;
12880;SDS011;6508;53.786;9.996;2023-03-31T12:18:33;5.22;;;4.72;;
12880;SDS011;6508;53.786;9.996;2023-03-31T12:21:04;5.38;;;4.68;;
12880;SDS011;6508;53.786;9.996;2023-03-31T12:23:33;5.68;;;5.18;;
12880;SDS011;6508;53.786;9.996;2023-03-31T12:26:04;7.60;;;4.57;;
12880;SDS011;6508;53.786;9.996;2023-03-31T12:28:37;6.03;;;3.92;;
12880;SDS011;6508;53.786;9.996;2023-03-31T12:31:07;4.10;;;3.80;;
12880;SDS011;6508;53.786;9.996;2023-03-31T12:33:39;4.30;;;3.90;;
12880;SDS011;6508;53.786;9.996;2023-03-31T12:36:13;5.95;;;4.38;;
12880;SDS011;6508;53.786;9.996;2023-03-31T12:38:49;4.60;;;4.20;;
12880;SDS011;6508;53.786;9.996;2023-03-31T12:41:25;4.43;;;3.95;;
12880;SDS011;6508;53.786;9.996;2023-03-31T12:44:03;4.97;;;4.47;;
12880;SDS011;6508;53.786;9.996;2023-03-31T12:46:44;4.47;;;3.95;;
12880;SDS011;6508;53.786;9.996;2023-03-31T12:49:27;5.65;;;4.47;;
12880;SDS011;6508;53.786;9.996;2023-03-31T12:52:13;4.57;;;3.80;;
12880;SDS011;6508;53.786;9.996;2023-03-31T12:54:52;4.40;;;4.00;;
12880;SDS011;6508;53.786;9.996;2023-03-31T12:57:26;5.47;;;4.97;;
12880;SDS011;6508;53.786;9.996;2023-03-31T13:02:49;4.78;;;3.90;;
12880;SDS011;6508;53.786;9.996;2023-03-31T13:11:16;6.22;;;3.80;;
12880;SDS011;6508;53.786;9.996;2023-03-31T13:13:44;4.00;;;3.63;;
12880;SDS011;6508;53.786;9.996;2023-03-31T13:16:26;3.83;;;3.53;;
12880;SDS011;6508;53.786;9.996;2023-03-31T13:18:54;4.82;;;3.10;;
12880;SDS011;6508;53.786;9.996;2023-03-31T13:21:24;3.78;;;3.30;;
12880;SDS011;6508;53.786;9.996;2023-03-31T13:23:52;4.82;;;4.32;;
12880;SDS011;6508;53.786;9.996;2023-03-31T13:26:40;4.32;;;3.92;;
12880;SDS011;6508;53.786;9.996;2023-03-31T13:29:19;4.75;;;3.95;;
12880;SDS011;6508;53.786;9.996;2023-03-31T13:32:04;4.50;;;4.20;;
12880;SDS011;6508;53.786;9.996;2023-03-31T13:34:34;4.88;;;4.03;;
12880;SDS011;6508;53.786;9.996;2023-03-31T13:37:08;4.43;;;4.13;;
12880;SDS011;6508;53.786;9.996;2023-03-31T13:42:49;8.48;;;7.68;;
12880;SDS011;6508;53.786;9.996;2023-03-31T13:45:42;16.55;;;12.77;;
12880;SDS011;6508;53.786;9.996;2023-03-31T13:48:26;25.02;;;16.67;;
12880;SDS011;6508;53.786;9.996;2023-03-31T13:51:14;45.05;;;28.83;;
12880;SDS011;6508;53.786;9.996;2023-03-31T13:56:57;8.05;;;7.30;;
12880;SDS011;6508;53.786;9.996;2023-03-31T13:59:37;13.38;;;12.18;;
12880;SDS011;6508;53.786;9.996;2023-03-31T14:05:05;13.60;;;10.40;;
12880;SDS011;6508;53.786;9.996;2023-03-31T14:07:37;17.92;;;16.10;;
12880;SDS011;6508;53.786;9.996;2023-03-31T14:10:09;14.13;;;12.63;;
12880;SDS011;6508;53.786;9.996;2023-03-31T14:12:50;9.00;;;8.30;;
12880;SDS011;6508;53.786;9.996;2023-03-31T14:15:19;8.02;;;7.18;;
12880;SDS011;6508;53.786;9.996;2023-03-31T14:17:47;9.13;;;7.57;;
12880;SDS011;6508;53.786;9.996;2023-03-31T14:20:22;9.98;;;9.18;;
12880;SDS011;6508;53.786;9.996;2023-03-31T14:22:56;8.60;;;7.90;;
12880;SDS011;6508;53.786;9.996;2023-03-31T14:25:34;9.02;;;8.23;;
12880;SDS011;6508;53.786;9.996;2023-03-31T14:28:12;7.35;;;6.68;;
12880;SDS011;6508;53.786;9.996;2023-03-31T14:30:47;10.55;;;8.57;;
12880;SDS011;6508;53.786;9.996;2023-03-31T14:33:25;8.43;;;7.55;;
12880;SDS011;6508;53.786;9.996;2023-03-31T14:36:00;8.15;;;7.28;;
12880;SDS011;6508;53.786;9.996;2023-03-31T14:38:33;10.00;;;9.20;;
12880;SDS011;6508;53.786;9.996;2023-03-31T14:41:02;9.35;;;8.43;;
12880;SDS011;6508;53.786;9.996;2023-03-31T14:43:31;9.35;;;8.50;;
12880;SDS011;6508;53.786;9.996;2023-03-31T14:46:01;9.30;;;8.40;;
12880;SDS011;6508;53.786;9.996;2023-03-31T14:48:31;8.27;;;7.55;;
12880;SDS011;6508;53.786;9.996;2023-03-31T14:51:01;8.35;;;7.55;;
12880;SDS011;6508;53.786;9.996;2023-03-31T14:53:30;8.18;;;7.57;;
12880;SDS011;6508;53.786;9.996;2023-03-31T14:55:59;8.30;;;7.50;;
12880;SDS011;6508;53.786;9.996;2023-03-31T14:58:29;8.90;;;7.95;;
12880;SDS011;6508;53.786;9.996;2023-03-31T15:01:01;9.55;;;8.00;;
12880;SDS011;6508;53.786;9.996;2023-03-31T15:03:30;8.77;;;8.02;;
12880;SDS011;6508;53.786;9.996;2023-03-31T15:05:58;9.10;;;8.20;;
12880;SDS011;6508;53.786;9.996;2023-03-31T15:08:28;8.68;;;7.85;;
12880;SDS011;6508;53.786;9.996;2023-03-31T15:10:57;8.02;;;7.28;;
12880;SDS011;6508;53.786;9.996;2023-03-31T15:13:41;8.02;;;7.43;;
12880;SDS011;6508;53.786;9.996;2023-03-31T15:16:30;8.73;;;7.97;;
12880;SDS011;6508;53.786;9.996;2023-03-31T15:19:04;8.27;;;7.60;;
12880;SDS011;6508;53.786;9.996;2023-03-31T15:21:37;7.95;;;7.35;;
12880;SDS011;6508;53.786;9.996;2023-03-31T15:24:06;8.52;;;7.72;;
12880;SDS011;6508;53.786;9.996;2023-03-31T15:26:34;8.77;;;7.65;;
12880;SDS011;6508;53.786;9.996;2023-03-31T15:29:10;7.53;;;6.95;;
12880;SDS011;6508;53.786;9.996;2023-03-31T15:31:42;8.48;;;7.88;;
12880;SDS011;6508;53.786;9.996;2023-03-31T15:34:13;8.07;;;7.40;;
12880;SDS011;6508;53.786;9.996;2023-03-31T15:36:42;7.72;;;6.78;;
12880;SDS011;6508;53.786;9.996;2023-03-31T15:39:10;7.25;;;6.55;;
12880;SDS011;6508;53.786;9.996;2023-03-31T15:41:39;7.63;;;7.00;;
12880;SDS011;6508;53.786;9.996;2023-03-31T15:44:26;6.60;;;6.00;;
12880;SDS011;6508;53.786;9.996;2023-03-31T15:46:58;7.80;;;6.10;;
12880;SDS011;6508;53.786;9.996;2023-03-31T15:49:27;5.20;;;4.80;;
12880;SDS011;6508;53.786;9.996;2023-03-31T15:51:56;5.47;;;5.07;;
12880;SDS011;6508;53.786;9.996;2023-03-31T15:54:33;5.40;;;4.82;;
12880;SDS011;6508;53.786;9.996;2023-03-31T15:57:03;5.25;;;4.53;;
12880;SDS011;6508;53.786;9.996;2023-03-31T15:59:42;4.75;;;4.40;;